createdAt,value
2023-02-11T00:01:09.146Z,-6.01
2023-02-11T00:03:36.654Z,-6.06
2023-02-11T00:06:06.686Z,-6.11
2023-02-11T00:08:33.481Z,-6.17
2023-02-11T00:11:00.310Z,-6.20
2023-02-11T00:13:27.424Z,-6.24
2023-02-11T00:15:55.452Z,-6.28
2023-02-11T00:18:22.879Z,-6.30
2023-02-11T00:20:49.774Z,-6.32
2023-02-11T00:23:16.537Z,-6.36
2023-02-11T00:25:45.433Z,-6.36
2023-02-11T00:28:12.561Z,-6.42
2023-02-11T00:30:40.951Z,-6.42
2023-02-11T00:33:08.546Z,-6.42
2023-02-11T00:35:38.354Z,-6.43
2023-02-11T00:38:07.673Z,-6.45
2023-02-11T00:40:34.520Z,-6.47
2023-02-11T00:43:01.432Z,-6.50
2023-02-11T00:45:28.831Z,-6.51
2023-02-11T00:47:55.695Z,-6.57
2023-02-11T00:50:23.004Z,-6.59
2023-02-11T00:52:49.810Z,-6.60
2023-02-11T00:55:17.176Z,-6.62
2023-02-11T00:57:44.066Z,-6.64
2023-02-11T01:00:13.830Z,-6.67
2023-02-11T01:02:41.812Z,-6.71
2023-02-11T01:05:10.025Z,-6.73
2023-02-11T01:07:36.845Z,-6.75
2023-02-11T01:10:04.472Z,-6.74
2023-02-11T01:12:31.349Z,-6.76
2023-02-11T01:14:58.337Z,-6.75
2023-02-11T01:17:25.069Z,-6.74
2023-02-11T01:19:51.842Z,-6.74
2023-02-11T01:22:18.713Z,-6.73
2023-02-11T01:24:47.315Z,-6.74
2023-02-11T01:27:14.068Z,-6.76
2023-02-11T01:29:40.863Z,-6.78
2023-02-11T01:32:07.663Z,-6.80
2023-02-11T01:34:34.495Z,-6.79
2023-02-11T01:37:01.268Z,-6.78
2023-02-11T01:39:29.295Z,-6.75
2023-02-11T01:41:56.071Z,-6.71
2023-02-11T01:44:29.110Z,-6.63
2023-02-11T01:46:56.513Z,-6.53
2023-02-11T01:49:32.224Z,-6.41
2023-02-11T01:52:01.810Z,-6.30
2023-02-11T01:55:01.584Z,-6.19
2023-02-11T01:57:32.402Z,-6.14
2023-02-11T02:00:20.430Z,-6.12
2023-02-11T02:03:05.253Z,-6.17
2023-02-11T02:05:43.793Z,-6.26
2023-02-11T02:08:26.024Z,-6.38
2023-02-11T02:10:56.591Z,-6.48
2023-02-11T02:13:24.728Z,-6.56
2023-02-11T02:15:59.305Z,-6.66
2023-02-11T02:19:06.233Z,-6.74
2023-02-11T02:22:15.233Z,-6.82
2023-02-11T02:25:13.036Z,-6.89
2023-02-11T02:28:05.870Z,-6.94
2023-02-11T02:30:44.362Z,-6.97
2023-02-11T02:33:53.320Z,-7.05
2023-02-11T02:36:32.085Z,-7.08
2023-02-11T02:39:13.898Z,-7.08
2023-02-11T02:41:42.038Z,-7.11
2023-02-11T02:44:09.421Z,-7.07
2023-02-11T02:46:37.111Z,-6.98
2023-02-11T02:49:11.092Z,-6.90
2023-02-11T02:51:49.775Z,-6.80
2023-02-11T02:54:34.456Z,-6.72
2023-02-11T02:57:06.843Z,-6.68
2023-02-11T03:00:19.534Z,-6.70
2023-02-11T03:03:12.457Z,-6.71
2023-02-11T03:06:00.465Z,-6.72
2023-02-11T03:08:43.615Z,-6.72
2023-02-11T03:11:12.444Z,-6.72
2023-02-11T03:13:40.921Z,-6.71
2023-02-11T03:16:28.502Z,-6.68
2023-02-11T03:19:18.700Z,-6.66
2023-02-11T03:21:47.158Z,-6.62
2023-02-11T03:24:24.431Z,-6.53
2023-02-11T03:26:54.915Z,-6.48
2023-02-11T03:29:24.209Z,-6.44
2023-02-11T03:32:17.153Z,-6.41
2023-02-11T03:34:58.832Z,-6.42
2023-02-11T03:37:32.693Z,-6.44
2023-02-11T03:40:10.217Z,-6.46
2023-02-11T03:42:59.432Z,-6.49
2023-02-11T03:45:28.390Z,-6.52
2023-02-11T03:48:04.039Z,-6.57
2023-02-11T03:50:34.095Z,-6.64
2023-02-11T03:53:02.741Z,-6.76
2023-02-11T03:55:33.301Z,-6.90
2023-02-11T03:58:00.154Z,-7.03
2023-02-11T04:00:36.613Z,-7.13
2023-02-11T04:03:04.554Z,-7.19
2023-02-11T04:05:31.912Z,-7.27
2023-02-11T04:07:58.751Z,-7.34
2023-02-11T04:10:25.860Z,-7.42
2023-02-11T04:12:52.651Z,-7.46
2023-02-11T04:15:19.839Z,-7.47
2023-02-11T04:17:46.767Z,-7.45
2023-02-11T04:20:13.591Z,-7.42
2023-02-11T04:22:40.505Z,-7.42
2023-02-11T04:25:09.430Z,-7.41
2023-02-11T04:27:36.837Z,-7.40
2023-02-11T04:30:05.686Z,-7.38
2023-02-11T04:32:32.486Z,-7.34
2023-02-11T04:34:59.240Z,-7.30
2023-02-11T04:37:26.015Z,-7.25
2023-02-11T04:39:52.764Z,-7.23
2023-02-11T04:42:19.551Z,-7.26
2023-02-11T04:44:46.272Z,-7.31
2023-02-11T04:47:15.616Z,-7.37
2023-02-11T04:49:42.985Z,-7.42
2023-02-11T04:52:09.812Z,-7.47
2023-02-11T04:54:36.711Z,-7.48
2023-02-11T04:57:03.610Z,-7.47
2023-02-11T04:59:30.605Z,-7.46
2023-02-11T05:01:57.424Z,-7.44
2023-02-11T05:04:24.481Z,-7.40
2023-02-11T05:06:51.292Z,-7.37
2023-02-11T05:09:18.304Z,-7.33
2023-02-11T05:11:45.112Z,-7.32
2023-02-11T05:14:12.031Z,-7.31
2023-02-11T05:16:38.905Z,-7.30
2023-02-11T05:19:05.841Z,-7.29
2023-02-11T05:21:32.665Z,-7.27
2023-02-11T05:23:59.491Z,-7.22
2023-02-11T05:26:26.905Z,-7.17
2023-02-11T05:28:54.247Z,-7.15
2023-02-11T05:31:21.557Z,-7.07
2023-02-11T05:33:48.337Z,-7.02
2023-02-11T05:36:16.914Z,-7.01
2023-02-11T05:38:43.876Z,-6.98
2023-02-11T05:41:11.911Z,-7.03
2023-02-11T05:43:38.907Z,-7.01
2023-02-11T05:46:06.810Z,-6.98
2023-02-11T05:48:36.654Z,-6.95
2023-02-11T05:51:04.340Z,-6.94
2023-02-11T05:53:31.668Z,-6.91
2023-02-11T05:55:58.513Z,-6.90
2023-02-11T05:58:25.982Z,-6.90
2023-02-11T06:00:52.858Z,-6.93
2023-02-11T06:03:20.967Z,-6.97
2023-02-11T06:05:47.994Z,-6.96
2023-02-11T06:08:15.525Z,-7.02
2023-02-11T06:10:45.573Z,-7.07
2023-02-11T06:13:12.944Z,-7.15
2023-02-11T06:15:40.297Z,-7.18
2023-02-11T06:18:08.658Z,-7.20
2023-02-11T06:20:35.760Z,-7.22
2023-02-11T06:23:03.372Z,-7.18
2023-02-11T06:25:30.130Z,-7.08
2023-02-11T06:27:57.656Z,-6.98
2023-02-11T06:30:25.199Z,-6.79
2023-02-11T06:32:52.846Z,-6.56
2023-02-11T06:35:21.418Z,-6.28
2023-02-11T06:37:50.370Z,-6.00
2023-02-11T06:40:17.246Z,-5.64
2023-02-11T06:42:45.210Z,-5.33
2023-02-11T06:45:13.830Z,-5.00
2023-02-11T06:47:41.025Z,-4.75
2023-02-11T06:50:11.262Z,-4.57
2023-02-11T06:52:39.181Z,-4.44
2023-02-11T06:55:06.508Z,-4.36
2023-02-11T06:57:34.055Z,-4.28
2023-02-11T07:00:01.642Z,-4.24
2023-02-11T07:02:28.829Z,-4.20
2023-02-11T07:04:55.607Z,-4.13
2023-02-11T07:07:22.399Z,-4.00
2023-02-11T07:09:49.191Z,-3.98
2023-02-11T07:12:15.922Z,-3.92
2023-02-11T07:14:42.783Z,-3.93
2023-02-11T07:17:09.539Z,-3.91
2023-02-11T07:19:36.280Z,-3.86
2023-02-11T07:22:03.031Z,-3.83
2023-02-11T07:24:29.906Z,-3.79
2023-02-11T07:26:56.630Z,-3.79
2023-02-11T07:29:23.338Z,-3.79
2023-02-11T07:31:50.444Z,-3.79
2023-02-11T07:34:17.427Z,-3.72
2023-02-11T07:36:45.106Z,-3.66
2023-02-11T07:39:12.080Z,-3.64
2023-02-11T07:41:39.094Z,-3.57
2023-02-11T07:44:06.451Z,-3.50
2023-02-11T07:46:34.691Z,-3.43
2023-02-11T07:49:01.695Z,-3.38
2023-02-11T07:51:30.010Z,-3.34
2023-02-11T07:53:59.131Z,-3.31
2023-02-11T07:56:26.702Z,-3.24
2023-02-11T07:58:54.470Z,-3.27
2023-02-11T08:01:25.429Z,-3.23
2023-02-11T08:03:53.021Z,-3.27
2023-02-11T08:06:22.328Z,-3.32
2023-02-11T08:08:49.532Z,-3.34
2023-02-11T08:11:21.988Z,-3.33
2023-02-11T08:13:49.092Z,-3.27
2023-02-11T08:16:36.297Z,-3.22
2023-02-11T08:19:14.668Z,-3.16
2023-02-11T08:21:42.096Z,-3.06
2023-02-11T08:24:09.534Z,-3.00
2023-02-11T08:26:37.492Z,-2.96
2023-02-11T08:29:09.163Z,-2.87
2023-02-11T08:31:39.604Z,-2.82
2023-02-11T08:34:06.997Z,-2.72
2023-02-11T08:36:36.717Z,-2.61
2023-02-11T08:39:22.482Z,-2.57
2023-02-11T08:41:54.511Z,-2.48
2023-02-11T08:44:21.918Z,-2.37
2023-02-11T08:46:49.723Z,-2.31
2023-02-11T08:49:17.252Z,-2.23
2023-02-11T08:51:44.870Z,-2.18
2023-02-11T08:54:12.165Z,-2.07
2023-02-11T08:56:39.202Z,-1.93
2023-02-11T08:59:07.107Z,-1.83
2023-02-11T09:01:34.038Z,-1.70
2023-02-11T09:04:01.232Z,-1.60
2023-02-11T09:06:29.124Z,-1.56
2023-02-11T09:08:58.142Z,-1.50
2023-02-11T09:11:34.942Z,-1.48
2023-02-11T09:14:03.051Z,-1.42
2023-02-11T09:16:32.504Z,-1.36
2023-02-11T09:19:01.163Z,-1.26
2023-02-11T09:21:29.006Z,-1.15
2023-02-11T09:23:56.641Z,-1.02
2023-02-11T09:26:28.659Z,-0.95
2023-02-11T09:28:56.125Z,-0.84
2023-02-11T09:31:25.456Z,-0.73
2023-02-11T09:33:55.427Z,-0.64
2023-02-11T09:36:25.090Z,-0.54
2023-02-11T09:38:52.779Z,-0.44
2023-02-11T09:41:28.856Z,-0.34
2023-02-11T09:43:58.694Z,-0.27
2023-02-11T09:46:30.109Z,-0.16
2023-02-11T09:48:57.218Z,-0.07
2023-02-11T09:51:39.730Z,0.05
2023-02-11T09:54:19.542Z,0.10
2023-02-11T09:56:46.447Z,0.19
2023-02-11T09:59:16.240Z,0.20
2023-02-11T10:02:11.916Z,0.28
2023-02-11T10:04:57.263Z,0.31
2023-02-11T10:07:48.334Z,0.29
2023-02-11T10:10:56.626Z,0.31
2023-02-11T10:13:30.361Z,0.43
2023-02-11T10:16:08.937Z,0.52
2023-02-11T10:19:05.274Z,0.67
2023-02-11T10:21:37.910Z,0.77
2023-02-11T10:24:12.419Z,0.84
2023-02-11T10:26:40.788Z,0.93
2023-02-11T10:29:14.717Z,1.02
2023-02-11T10:31:45.300Z,1.14
2023-02-11T10:34:13.912Z,1.21
2023-02-11T10:36:43.380Z,1.35
2023-02-11T10:39:18.039Z,1.47
2023-02-11T10:41:58.244Z,1.61
2023-02-11T10:44:36.511Z,1.70
2023-02-11T10:47:10.281Z,1.71
2023-02-11T10:49:42.918Z,1.78
2023-02-11T10:52:24.419Z,1.87
2023-02-11T10:55:02.939Z,1.93
2023-02-11T10:57:37.455Z,1.95
2023-02-11T11:00:22.874Z,2.02
2023-02-11T11:02:56.652Z,2.10
2023-02-11T11:05:45.609Z,2.21
2023-02-11T11:08:13.354Z,2.29
2023-02-11T11:10:47.050Z,2.42
2023-02-11T11:13:34.758Z,2.53
2023-02-11T11:16:13.347Z,2.59
2023-02-11T11:18:42.133Z,2.65
2023-02-11T11:21:35.417Z,2.74
2023-02-11T11:24:20.948Z,2.85
2023-02-11T11:26:52.175Z,2.95
2023-02-11T11:29:31.222Z,2.99
2023-02-11T11:32:01.842Z,3.12
2023-02-11T11:34:32.432Z,3.20
2023-02-11T11:37:02.129Z,3.26
2023-02-11T11:39:34.984Z,3.31
2023-02-11T11:42:05.497Z,3.38
2023-02-11T11:44:34.694Z,3.44
2023-02-11T11:47:13.576Z,3.50
2023-02-11T11:49:40.390Z,3.52
2023-02-11T11:52:21.948Z,3.58
2023-02-11T11:54:58.358Z,3.61
2023-02-11T11:57:28.745Z,3.70
2023-02-11T11:59:55.904Z,3.78
2023-02-11T12:03:00.246Z,3.87
2023-02-11T12:05:45.286Z,3.93
2023-02-11T12:08:20.978Z,3.99
2023-02-11T12:11:10.952Z,4.04
2023-02-11T12:13:57.023Z,4.07
2023-02-11T12:16:42.787Z,4.12
2023-02-11T12:19:34.337Z,4.15
2023-02-11T12:22:12.784Z,4.20
2023-02-11T12:25:08.037Z,4.24
2023-02-11T12:27:34.745Z,4.29
2023-02-11T12:30:04.660Z,4.32
2023-02-11T12:32:37.036Z,4.35
2023-02-11T12:35:27.340Z,4.39
2023-02-11T12:37:54.136Z,4.41
2023-02-11T12:40:26.745Z,4.45
2023-02-11T12:43:17.186Z,4.53
2023-02-11T12:45:49.674Z,4.56
2023-02-11T12:48:22.659Z,4.61
2023-02-11T12:51:11.977Z,4.73
2023-02-11T12:54:16.114Z,4.78
2023-02-11T12:56:48.848Z,4.83
2023-02-11T12:59:26.271Z,4.87
2023-02-11T13:01:55.734Z,4.92
2023-02-11T13:04:30.944Z,4.96
2023-02-11T13:07:02.389Z,4.96
2023-02-11T13:09:37.218Z,5.01
2023-02-11T13:12:26.095Z,5.05
2023-02-11T13:14:56.551Z,5.06
2023-02-11T13:17:32.823Z,5.07
2023-02-11T13:20:05.893Z,5.07
2023-02-11T13:22:46.412Z,5.13
2023-02-11T13:25:50.224Z,5.13
2023-02-11T13:28:45.522Z,5.19
2023-02-11T13:31:14.817Z,5.20
2023-02-11T13:33:43.293Z,5.24
2023-02-11T13:36:10.001Z,5.28
2023-02-11T13:38:38.162Z,5.28
2023-02-11T13:41:20.786Z,5.27
2023-02-11T13:43:59.247Z,5.25
2023-02-11T13:46:29.134Z,5.33
2023-02-11T13:48:56.773Z,5.35
2023-02-11T13:51:39.095Z,5.36
2023-02-11T13:54:08.523Z,5.39
2023-02-11T13:56:40.830Z,5.39
2023-02-11T13:59:25.994Z,5.42
2023-02-11T14:02:35.917Z,5.41
2023-02-11T14:05:21.071Z,5.45
2023-02-11T14:08:36.325Z,5.45
2023-02-11T14:11:29.619Z,5.45
2023-02-11T14:14:14.908Z,5.47
2023-02-11T14:17:00.033Z,5.48
2023-02-11T14:19:35.879Z,5.46
2023-02-11T14:22:10.021Z,5.47
2023-02-11T14:24:36.703Z,5.46
2023-02-11T14:27:13.296Z,5.46
2023-02-11T14:30:09.405Z,5.41
2023-02-11T14:32:54.528Z,5.41
2023-02-11T14:35:39.623Z,5.42
2023-02-11T14:38:15.124Z,5.38
2023-02-11T14:41:03.272Z,5.36
2023-02-11T14:43:43.582Z,5.33
2023-02-11T14:46:10.556Z,5.32
2023-02-11T14:48:39.365Z,5.31
2023-02-11T14:51:11.354Z,5.28
2023-02-11T14:53:43.821Z,5.22
2023-02-11T14:56:28.049Z,5.16
2023-02-11T14:58:55.611Z,5.11
2023-02-11T15:01:35.470Z,5.04
2023-02-11T15:04:03.901Z,5.00
2023-02-11T15:06:38.029Z,4.92
2023-02-11T15:09:25.631Z,4.87
2023-02-11T15:11:53.305Z,4.80
2023-02-11T15:14:28.061Z,4.76
2023-02-11T15:16:58.571Z,4.68
2023-02-11T15:19:35.971Z,4.63
2023-02-11T15:22:07.155Z,4.58
2023-02-11T15:24:35.662Z,4.51
2023-02-11T15:27:03.831Z,4.45
2023-02-11T15:29:43.352Z,4.37
2023-02-11T15:32:10.240Z,4.29
2023-02-11T15:34:37.565Z,4.18
2023-02-11T15:37:04.751Z,4.07
2023-02-11T15:39:41.091Z,3.97
2023-02-11T15:42:27.492Z,3.80
2023-02-11T15:45:16.229Z,3.65
2023-02-11T15:47:49.715Z,3.50
2023-02-11T15:50:32.373Z,3.30
2023-02-11T15:53:20.985Z,3.13
2023-02-11T15:55:50.862Z,2.94
2023-02-11T15:58:18.277Z,2.79
2023-02-11T16:00:51.096Z,2.59
2023-02-11T16:03:28.756Z,2.45
2023-02-11T16:05:59.933Z,2.36
2023-02-11T16:08:29.983Z,2.23
2023-02-11T16:11:03.367Z,2.10
2023-02-11T16:13:34.528Z,1.99
2023-02-11T16:16:04.824Z,1.88
2023-02-11T16:18:40.467Z,1.73
2023-02-11T16:21:18.230Z,1.67
2023-02-11T16:23:54.465Z,1.63
2023-02-11T16:26:43.363Z,1.56
2023-02-11T16:29:37.506Z,1.53
2023-02-11T16:32:15.162Z,1.47
2023-02-11T16:34:42.064Z,1.41
2023-02-11T16:37:08.834Z,1.36
2023-02-11T16:39:35.952Z,1.34
2023-02-11T16:42:05.763Z,1.31
2023-02-11T16:44:34.905Z,1.27
2023-02-11T16:47:06.156Z,1.20
2023-02-11T16:49:37.123Z,1.17
2023-02-11T16:52:07.743Z,1.18
2023-02-11T16:54:34.572Z,1.17
2023-02-11T16:57:06.059Z,1.07
2023-02-11T16:59:34.879Z,0.97
2023-02-11T17:02:01.844Z,0.81
2023-02-11T17:04:31.531Z,0.72
2023-02-11T17:06:58.834Z,0.62
2023-02-11T17:09:30.602Z,0.54
2023-02-11T17:11:57.969Z,0.48
2023-02-11T17:14:24.777Z,0.40
2023-02-11T17:16:51.710Z,0.36
2023-02-11T17:19:23.588Z,0.32
2023-02-11T17:21:52.483Z,0.31
2023-02-11T17:24:20.660Z,0.31
2023-02-11T17:26:49.094Z,0.29
2023-02-11T17:29:25.621Z,0.27
2023-02-11T17:31:53.254Z,0.22
2023-02-11T17:34:21.636Z,0.16
2023-02-11T17:36:49.175Z,0.14
2023-02-11T17:39:16.535Z,0.10
2023-02-11T17:41:43.377Z,0.10
2023-02-11T17:44:12.410Z,0.13
2023-02-11T17:46:39.372Z,0.15
2023-02-11T17:49:06.297Z,0.15
2023-02-11T17:51:35.248Z,0.13
2023-02-11T17:54:04.990Z,0.06
2023-02-11T17:56:33.352Z,0.02
2023-02-11T17:59:02.470Z,-0.01
2023-02-11T18:01:30.790Z,-0.07
2023-02-11T18:03:57.687Z,-0.13
2023-02-11T18:06:24.729Z,-0.13
2023-02-11T18:08:51.828Z,-0.13
2023-02-11T18:11:18.806Z,-0.17
2023-02-11T18:13:45.708Z,-0.21
2023-02-11T18:16:15.911Z,-0.26
2023-02-11T18:18:43.692Z,-0.34
2023-02-11T18:21:19.365Z,-0.37
2023-02-11T18:23:46.995Z,-0.38
2023-02-11T18:26:15.609Z,-0.41
2023-02-11T18:28:45.632Z,-0.49
2023-02-11T18:31:13.922Z,-0.59
2023-02-11T18:33:42.702Z,-0.68
2023-02-11T18:36:12.036Z,-0.82
2023-02-11T18:38:41.874Z,-0.89
2023-02-11T18:41:08.683Z,-1.01
2023-02-11T18:43:36.371Z,-1.06
2023-02-11T18:46:08.348Z,-1.14
2023-02-11T18:48:35.276Z,-1.20
2023-02-11T18:51:02.049Z,-1.23
2023-02-11T18:53:28.838Z,-1.19
2023-02-11T18:55:55.795Z,-1.16
2023-02-11T18:58:22.890Z,-1.17
2023-02-11T19:00:50.545Z,-1.20
2023-02-11T19:03:17.618Z,-1.24
2023-02-11T19:05:49.186Z,-1.29
2023-02-11T19:08:17.192Z,-1.35
2023-02-11T19:10:46.958Z,-1.41
2023-02-11T19:13:14.158Z,-1.47
2023-02-11T19:15:42.587Z,-1.53
2023-02-11T19:18:10.110Z,-1.52
2023-02-11T19:20:39.882Z,-1.56
2023-02-11T19:23:06.735Z,-1.59
2023-02-11T19:25:33.604Z,-1.63
2023-02-11T19:28:00.527Z,-1.68
2023-02-11T19:30:27.846Z,-1.71
2023-02-11T19:32:57.166Z,-1.75
2023-02-11T19:35:25.300Z,-1.77
2023-02-11T19:37:52.124Z,-1.83
2023-02-11T19:40:21.212Z,-1.89
2023-02-11T19:42:48.246Z,-1.94
2023-02-11T19:45:15.510Z,-2.02
2023-02-11T19:47:42.251Z,-2.06
2023-02-11T19:50:09.610Z,-2.10
2023-02-11T19:52:40.785Z,-2.15
2023-02-11T19:55:08.408Z,-2.16
2023-02-11T19:57:37.054Z,-2.16
2023-02-11T20:00:05.160Z,-2.16
2023-02-11T20:02:39.565Z,-2.15
2023-02-11T20:05:06.877Z,-2.15
2023-02-11T20:07:33.634Z,-2.13
2023-02-11T20:10:00.494Z,-2.14
2023-02-11T20:12:27.374Z,-2.16
2023-02-11T20:14:54.267Z,-2.20
2023-02-11T20:17:21.047Z,-2.24
2023-02-11T20:19:47.856Z,-2.26
2023-02-11T20:22:14.700Z,-2.29
2023-02-11T20:24:41.507Z,-2.27
2023-02-11T20:27:10.539Z,-2.31
2023-02-11T20:29:38.260Z,-2.34
2023-02-11T20:32:06.453Z,-2.35
2023-02-11T20:34:33.870Z,-2.36
2023-02-11T20:37:00.658Z,-2.37
2023-02-11T20:39:27.461Z,-2.33
2023-02-11T20:41:54.880Z,-2.22
2023-02-11T20:44:22.536Z,-2.10
2023-02-11T20:46:51.368Z,-1.99
2023-02-11T20:49:21.479Z,-1.87
2023-02-11T20:51:49.155Z,-1.77
2023-02-11T20:54:18.429Z,-1.72
2023-02-11T20:56:48.078Z,-1.69
2023-02-11T20:59:16.654Z,-1.70
2023-02-11T21:01:48.115Z,-1.72
2023-02-11T21:04:18.088Z,-1.76
2023-02-11T21:06:48.169Z,-1.82
2023-02-11T21:09:19.816Z,-1.91
2023-02-11T21:11:47.668Z,-2.00
2023-02-11T21:14:15.154Z,-2.08
2023-02-11T21:16:42.302Z,-2.12
2023-02-11T21:19:09.186Z,-2.16
2023-02-11T21:21:38.533Z,-2.15
2023-02-11T21:24:07.027Z,-2.15
2023-02-11T21:26:35.491Z,-2.13
2023-02-11T21:29:04.754Z,-2.04
2023-02-11T21:31:34.327Z,-1.94
2023-02-11T21:34:02.124Z,-1.85
2023-02-11T21:36:29.788Z,-1.75
2023-02-11T21:38:57.034Z,-1.67
2023-02-11T21:41:24.941Z,-1.58
2023-02-11T21:43:52.475Z,-1.50
2023-02-11T21:46:20.468Z,-1.40
2023-02-11T21:48:47.665Z,-1.33
2023-02-11T21:51:17.276Z,-1.25
2023-02-11T21:53:44.414Z,-1.16
2023-02-11T21:56:13.980Z,-1.09
2023-02-11T21:58:40.998Z,-1.04
2023-02-11T22:01:15.842Z,-0.99
2023-02-11T22:03:43.050Z,-0.96
2023-02-11T22:06:12.546Z,-0.93
2023-02-11T22:08:40.146Z,-0.91
2023-02-11T22:11:09.532Z,-0.94
2023-02-11T22:13:37.107Z,-0.96
2023-02-11T22:16:10.595Z,-0.97
2023-02-11T22:18:38.077Z,-0.94
2023-02-11T22:21:10.870Z,-0.91
2023-02-11T22:23:39.225Z,-0.86
2023-02-11T22:26:23.926Z,-0.79
2023-02-11T22:28:51.571Z,-0.68
2023-02-11T22:31:25.185Z,-0.60
2023-02-11T22:33:52.365Z,-0.52
2023-02-11T22:36:22.466Z,-0.43
2023-02-11T22:38:49.651Z,-0.39
2023-02-11T22:41:17.341Z,-0.31
2023-02-11T22:43:45.097Z,-0.25
2023-02-11T22:46:14.433Z,-0.19
2023-02-11T22:48:41.344Z,-0.14
2023-02-11T22:51:14.214Z,-0.09
2023-02-11T22:53:41.136Z,-0.05
2023-02-11T22:56:15.018Z,-0.07
2023-02-11T22:58:42.690Z,-0.05
2023-02-11T23:01:10.411Z,-0.06
2023-02-11T23:03:37.370Z,-0.03
2023-02-11T23:06:05.065Z,-0.06
2023-02-11T23:08:32.669Z,-0.05
2023-02-11T23:11:11.673Z,-0.05
2023-02-11T23:13:40.442Z,-0.06
2023-02-11T23:16:10.213Z,-0.05
2023-02-11T23:18:38.519Z,-0.03
2023-02-11T23:21:11.305Z,-0.02
2023-02-11T23:23:39.570Z,-0.02
2023-02-11T23:26:11.113Z,-0.03
2023-02-11T23:28:38.735Z,-0.05
2023-02-11T23:31:25.453Z,-0.06
2023-02-11T23:33:52.727Z,-0.09
2023-02-11T23:36:21.455Z,-0.11
2023-02-11T23:38:48.999Z,-0.15
2023-02-11T23:41:16.422Z,-0.19
2023-02-11T23:43:43.521Z,-0.23
2023-02-11T23:46:10.968Z,-0.25
2023-02-11T23:48:38.031Z,-0.25
2023-02-11T23:51:05.025Z,-0.25
2023-02-11T23:53:31.744Z,-0.21
2023-02-11T23:55:58.611Z,-0.16
2023-02-11T23:58:25.380Z,-0.12
